createdAt,value
2023-03-04T00:02:01.791Z,24.77
2023-03-04T00:04:28.371Z,23.23
2023-03-04T00:06:54.800Z,22.13
2023-03-04T00:09:21.279Z,21.75
2023-03-04T00:11:47.648Z,17.67
2023-03-04T00:14:14.325Z,18.58
2023-03-04T00:16:40.825Z,22.35
2023-03-04T00:19:07.228Z,24.38
2023-03-04T00:21:33.688Z,28.83
2023-03-04T00:24:00.079Z,29.30
2023-03-04T00:26:26.510Z,17.52
2023-03-04T00:28:52.956Z,23.60
2023-03-04T00:31:19.415Z,21.55
2023-03-04T00:33:45.877Z,24.20
2023-03-04T00:36:12.294Z,25.15
2023-03-04T00:38:38.759Z,16.98
2023-03-04T00:41:05.257Z,19.05
2023-03-04T00:43:32.141Z,21.70
2023-03-04T00:45:58.587Z,19.35
2023-03-04T00:48:25.068Z,22.55
2023-03-04T00:50:53.821Z,19.27
2023-03-04T00:53:20.998Z,17.90
2023-03-04T00:55:47.430Z,21.40
2023-03-04T00:58:13.822Z,25.60
2023-03-04T01:00:40.292Z,19.52
2023-03-04T01:03:06.707Z,17.95
2023-03-04T01:05:35.811Z,17.15
2023-03-04T01:08:02.898Z,19.00
2023-03-04T01:10:29.374Z,33.20
2023-03-04T01:12:55.777Z,23.00
2023-03-04T01:15:22.206Z,19.02
2023-03-04T01:17:48.755Z,22.88
2023-03-04T01:20:15.673Z,17.60
2023-03-04T01:22:42.301Z,24.33
2023-03-04T01:25:08.947Z,19.55
2023-03-04T01:27:35.368Z,24.25
2023-03-04T01:30:02.064Z,18.90
2023-03-04T01:32:28.505Z,18.77
2023-03-04T01:34:55.025Z,18.15
2023-03-04T01:37:21.410Z,19.98
2023-03-04T01:39:47.792Z,19.30
2023-03-04T01:42:19.918Z,20.55
2023-03-04T01:44:47.280Z,20.20
2023-03-04T01:47:14.375Z,15.35
2023-03-04T01:49:40.884Z,19.75
2023-03-04T01:52:11.634Z,19.10
2023-03-04T01:54:38.055Z,18.00
2023-03-04T01:57:16.192Z,16.98
2023-03-04T01:59:42.589Z,18.38
2023-03-04T02:02:08.994Z,19.55
2023-03-04T02:04:35.484Z,17.42
2023-03-04T02:07:02.769Z,21.20
2023-03-04T02:09:30.880Z,16.88
2023-03-04T02:11:57.412Z,19.65
2023-03-04T02:14:24.018Z,18.55
2023-03-04T02:16:50.901Z,17.80
2023-03-04T02:19:42.227Z,22.73
2023-03-04T02:22:09.012Z,12.25
2023-03-04T02:24:41.599Z,15.77
2023-03-04T02:29:34.634Z,17.25
2023-03-04T02:32:01.135Z,16.02
2023-03-04T02:34:33.536Z,20.83
2023-03-04T02:37:00.354Z,15.35
2023-03-04T02:39:33.825Z,13.95
2023-03-04T02:42:01.937Z,15.80
2023-03-04T02:44:36.973Z,9.75
2023-03-04T02:47:05.761Z,16.80
2023-03-04T02:49:32.945Z,17.15
2023-03-04T02:52:02.496Z,15.52
2023-03-04T02:54:28.970Z,19.67
2023-03-04T02:57:00.473Z,14.95
2023-03-04T02:59:27.176Z,16.15
2023-03-04T03:01:53.996Z,13.27
2023-03-04T03:04:21.623Z,12.20
2023-03-04T03:06:48.235Z,13.50
2023-03-04T03:09:14.924Z,16.92
2023-03-04T03:11:41.485Z,13.65
2023-03-04T03:14:08.032Z,15.05
2023-03-04T03:16:34.539Z,20.80
2023-03-04T03:19:01.288Z,15.35
2023-03-04T03:21:27.704Z,15.32
2023-03-04T03:23:54.170Z,16.35
2023-03-04T03:26:20.634Z,16.23
2023-03-04T03:28:47.059Z,14.10
2023-03-04T03:31:13.836Z,17.63
2023-03-04T03:33:40.473Z,16.25
2023-03-04T03:36:07.903Z,14.40
2023-03-04T03:38:34.565Z,12.35
2023-03-04T03:41:01.016Z,13.30
2023-03-04T03:43:27.445Z,18.48
2023-03-04T03:45:54.000Z,12.48
2023-03-04T03:48:20.505Z,14.25
2023-03-04T03:50:46.916Z,13.63
2023-03-04T03:53:13.380Z,15.10
2023-03-04T03:55:39.781Z,12.60
2023-03-04T03:58:06.213Z,15.25
2023-03-04T04:00:32.621Z,13.15
2023-03-04T04:03:00.767Z,15.32
2023-03-04T04:05:27.283Z,10.93
2023-03-04T04:07:54.279Z,13.07
2023-03-04T04:10:21.509Z,10.68
2023-03-04T04:12:47.953Z,12.45
2023-03-04T04:15:14.380Z,11.38
2023-03-04T04:17:40.789Z,11.02
2023-03-04T04:20:10.291Z,8.50
2023-03-04T04:22:36.692Z,14.13
2023-03-04T04:25:03.253Z,11.73
2023-03-04T04:27:29.725Z,11.73
2023-03-04T04:29:56.088Z,10.85
2023-03-04T04:32:22.521Z,11.40
2023-03-04T04:34:48.925Z,14.48
2023-03-04T04:37:15.315Z,7.35
2023-03-04T04:39:41.736Z,12.35
2023-03-04T04:42:10.908Z,14.57
2023-03-04T04:44:38.834Z,11.38
2023-03-04T04:47:07.201Z,18.83
2023-03-04T04:49:33.691Z,11.27
2023-03-04T04:52:00.275Z,12.68
2023-03-04T04:54:26.677Z,8.68
2023-03-04T04:56:53.308Z,11.07
2023-03-04T04:59:19.848Z,12.63
2023-03-04T05:01:46.282Z,17.90
2023-03-04T05:04:12.778Z,12.90
2023-03-04T05:06:39.271Z,12.75
2023-03-04T05:09:06.270Z,12.50
2023-03-04T05:11:32.941Z,12.25
2023-03-04T05:13:59.332Z,12.18
2023-03-04T05:16:25.791Z,12.20
2023-03-04T05:18:52.150Z,9.18
2023-03-04T05:21:18.583Z,10.63
2023-03-04T05:23:45.078Z,11.48
2023-03-04T05:26:14.612Z,12.07
2023-03-04T05:28:41.059Z,17.35
2023-03-04T05:31:07.634Z,8.57
2023-03-04T05:33:34.055Z,11.30
2023-03-04T05:36:00.593Z,12.85
2023-03-04T05:38:27.044Z,11.30
2023-03-04T05:41:02.872Z,17.83
2023-03-04T05:43:30.074Z,11.65
2023-03-04T05:45:56.910Z,15.13
2023-03-04T05:48:23.634Z,19.25
2023-03-04T05:50:57.287Z,13.75
2023-03-04T05:53:24.049Z,12.93
2023-03-04T05:55:55.201Z,13.98
2023-03-04T05:58:21.602Z,8.43
2023-03-04T06:00:48.205Z,10.90
2023-03-04T06:03:17.123Z,14.82
2023-03-04T06:05:43.612Z,13.43
2023-03-04T06:08:11.340Z,16.63
2023-03-04T06:10:39.583Z,18.33
2023-03-04T06:13:06.441Z,11.23
2023-03-04T06:15:32.927Z,10.50
2023-03-04T06:17:59.368Z,14.30
2023-03-04T06:20:25.772Z,10.05
2023-03-04T06:22:52.187Z,19.35
2023-03-04T06:25:18.568Z,12.52
2023-03-04T06:27:44.979Z,9.18
2023-03-04T06:30:11.858Z,11.30
2023-03-04T06:32:38.264Z,9.57
2023-03-04T06:35:05.081Z,15.23
2023-03-04T06:37:31.503Z,10.07
2023-03-04T06:39:57.952Z,13.43
2023-03-04T06:42:24.362Z,11.15
2023-03-04T06:44:50.762Z,11.90
2023-03-04T06:47:18.772Z,17.23
2023-03-04T06:49:45.200Z,12.50
2023-03-04T06:52:12.837Z,10.50
2023-03-04T06:54:39.961Z,10.13
2023-03-04T06:57:07.050Z,16.00
2023-03-04T06:59:33.856Z,15.13
2023-03-04T07:02:00.278Z,18.98
2023-03-04T07:04:26.755Z,13.93
2023-03-04T07:06:53.209Z,12.85
2023-03-04T07:09:19.686Z,13.88
2023-03-04T07:11:46.191Z,9.30
2023-03-04T07:14:12.654Z,10.73
2023-03-04T07:16:41.488Z,12.82
2023-03-04T07:19:07.989Z,12.13
2023-03-04T07:21:34.409Z,14.38
2023-03-04T07:24:01.143Z,11.93
2023-03-04T07:26:27.627Z,12.25
2023-03-04T07:28:54.583Z,13.32
2023-03-04T07:31:25.232Z,15.15
2023-03-04T07:33:51.837Z,14.43
2023-03-04T07:36:19.777Z,13.55
2023-03-04T07:38:47.245Z,13.07
2023-03-04T07:41:13.953Z,13.60
2023-03-04T07:43:40.382Z,10.18
2023-03-04T07:46:07.174Z,14.45
2023-03-04T07:48:33.576Z,13.13
2023-03-04T07:51:07.156Z,14.02
2023-03-04T07:53:34.122Z,13.23
2023-03-04T07:56:02.603Z,12.77
2023-03-04T07:58:29.170Z,12.13
2023-03-04T08:00:55.632Z,7.85
2023-03-04T08:03:22.270Z,11.65
2023-03-04T08:05:48.701Z,8.93
2023-03-04T08:08:17.286Z,9.75
2023-03-04T08:10:43.939Z,10.75
2023-03-04T08:13:10.415Z,13.88
2023-03-04T08:15:41.120Z,10.18
2023-03-04T08:18:07.549Z,8.15
2023-03-04T08:20:34.117Z,8.10
2023-03-04T08:23:00.469Z,12.65
2023-03-04T08:25:26.923Z,14.40
2023-03-04T08:27:53.274Z,11.10
2023-03-04T08:30:19.755Z,9.38
2023-03-04T08:32:46.338Z,9.70
2023-03-04T08:35:12.808Z,13.50
2023-03-04T08:37:39.194Z,14.20
2023-03-04T08:40:06.208Z,12.05
2023-03-04T08:42:32.628Z,13.55
2023-03-04T08:44:59.039Z,13.63
2023-03-04T08:47:25.461Z,13.18
2023-03-04T08:49:52.097Z,14.48
2023-03-04T08:52:18.497Z,12.30
2023-03-04T08:54:44.911Z,17.02
2023-03-04T08:57:11.423Z,11.90
2023-03-04T08:59:38.534Z,12.27
2023-03-04T09:02:05.097Z,9.27
2023-03-04T09:04:31.811Z,10.50
2023-03-04T09:06:58.290Z,14.13
2023-03-04T09:09:24.822Z,10.68
2023-03-04T09:11:51.276Z,13.55
2023-03-04T09:14:17.645Z,12.88
2023-03-04T09:16:44.013Z,11.88
2023-03-04T09:19:10.501Z,11.27
2023-03-04T09:21:36.887Z,14.70
2023-03-04T09:24:03.513Z,14.93
2023-03-04T09:26:29.989Z,10.38
2023-03-04T09:29:00.494Z,11.07
2023-03-04T09:31:27.581Z,14.75
2023-03-04T09:33:55.366Z,10.82
2023-03-04T09:36:22.039Z,11.77
2023-03-04T09:38:48.533Z,9.25
2023-03-04T09:41:36.614Z,13.07
2023-03-04T09:44:08.070Z,12.10
2023-03-04T09:46:38.074Z,11.07
2023-03-04T09:49:07.134Z,11.48
2023-03-04T09:51:39.775Z,15.02
2023-03-04T09:54:26.937Z,13.27
2023-03-04T09:56:59.249Z,11.82
2023-03-04T09:59:30.895Z,11.38
2023-03-04T10:01:59.982Z,10.77
2023-03-04T10:04:33.163Z,10.23
2023-03-04T10:07:02.110Z,8.32
2023-03-04T10:10:16.836Z,9.23
2023-03-04T10:12:46.292Z,11.63
2023-03-04T10:15:44.024Z,9.13
2023-03-04T10:18:24.430Z,5.78
2023-03-04T10:20:59.288Z,7.45
2023-03-04T10:23:27.321Z,5.85
2023-03-04T10:25:54.491Z,7.30
2023-03-04T10:28:23.772Z,6.10
2023-03-04T10:31:02.232Z,6.47
2023-03-04T10:33:36.985Z,4.18
2023-03-04T10:36:23.573Z,4.82
2023-03-04T10:38:54.165Z,6.50
2023-03-04T10:41:24.575Z,6.30
2023-03-04T10:44:04.683Z,6.30
2023-03-04T10:46:31.967Z,5.00
2023-03-04T10:48:58.507Z,3.13
2023-03-04T10:51:27.494Z,5.15
2023-03-04T10:54:16.918Z,2.45
2023-03-04T10:56:53.421Z,4.55
2023-03-04T10:59:34.188Z,6.65
2023-03-04T11:02:16.170Z,8.10
2023-03-04T11:04:42.701Z,8.02
2023-03-04T11:07:10.963Z,7.88
2023-03-04T11:09:37.833Z,6.20
2023-03-04T11:12:11.269Z,8.35
2023-03-04T11:14:49.881Z,9.77
2023-03-04T11:17:17.711Z,7.45
2023-03-04T11:19:53.831Z,9.32
2023-03-04T11:22:22.077Z,9.18
2023-03-04T11:24:56.668Z,6.93
2023-03-04T11:27:36.694Z,6.28
2023-03-04T11:30:20.354Z,6.70
2023-03-04T11:32:49.901Z,7.55
2023-03-04T11:35:44.692Z,9.25
2023-03-04T11:38:31.171Z,9.18
2023-03-04T11:41:22.289Z,11.55
2023-03-04T11:43:49.087Z,10.93
2023-03-04T11:46:51.182Z,11.52
2023-03-04T11:49:46.729Z,9.85
2023-03-04T11:52:48.079Z,10.55
2023-03-04T11:55:33.123Z,10.13
2023-03-04T11:58:19.042Z,12.93
2023-03-04T12:00:54.467Z,14.20
2023-03-04T12:03:45.273Z,9.95
2023-03-04T12:06:17.260Z,11.02
2023-03-04T12:09:03.825Z,15.63
2023-03-04T12:11:56.229Z,15.07
2023-03-04T12:14:26.835Z,13.77
2023-03-04T12:17:43.771Z,9.23
2023-03-04T12:20:28.817Z,10.35
2023-03-04T12:23:08.361Z,11.60
2023-03-04T12:25:45.640Z,13.45
2023-03-04T12:28:27.608Z,5.75
2023-03-04T12:31:26.225Z,12.88
2023-03-04T12:34:03.453Z,7.75
2023-03-04T12:36:44.420Z,7.00
2023-03-04T12:39:29.750Z,7.57
2023-03-04T12:42:35.761Z,6.53
2023-03-04T12:45:25.579Z,8.48
2023-03-04T12:48:02.438Z,7.07
2023-03-04T12:50:40.451Z,5.35
2023-03-04T12:53:29.913Z,8.35
2023-03-04T12:55:57.431Z,5.70
2023-03-04T12:58:26.149Z,6.63
2023-03-04T13:01:15.865Z,6.60
2023-03-04T13:03:52.018Z,7.22
2023-03-04T13:06:41.224Z,6.80
2023-03-04T13:09:11.801Z,6.65
2023-03-04T13:11:51.069Z,5.43
2023-03-04T13:14:20.116Z,4.82
2023-03-04T13:16:48.754Z,11.73
2023-03-04T13:19:47.272Z,10.73
2023-03-04T13:22:32.095Z,12.48
2023-03-04T13:25:01.570Z,9.68
2023-03-04T13:27:49.375Z,8.13
2023-03-04T13:30:38.175Z,11.15
2023-03-04T13:33:16.368Z,6.68
2023-03-04T13:35:54.635Z,7.63
2023-03-04T13:38:36.524Z,11.68
2023-03-04T13:41:06.098Z,7.67
2023-03-04T13:43:40.088Z,13.00
2023-03-04T13:46:18.461Z,11.52
2023-03-04T13:48:50.828Z,12.73
2023-03-04T13:51:31.593Z,10.23
2023-03-04T13:54:00.978Z,11.05
2023-03-04T13:56:37.001Z,11.10
2023-03-04T13:59:33.347Z,12.00
2023-03-04T14:02:02.501Z,11.98
2023-03-04T14:04:39.662Z,14.05
2023-03-04T14:07:23.185Z,15.05
2023-03-04T14:10:07.407Z,19.90
2023-03-04T14:12:41.590Z,22.85
2023-03-04T14:15:13.996Z,25.63
2023-03-04T14:17:44.939Z,18.52
2023-03-04T14:20:29.536Z,15.90
2023-03-04T14:22:57.361Z,11.55
2023-03-04T14:25:31.908Z,13.50
2023-03-04T14:28:11.549Z,15.60
2023-03-04T14:30:43.322Z,15.07
2023-03-04T14:33:16.175Z,15.80
2023-03-04T14:35:47.922Z,17.85
2023-03-04T14:38:26.547Z,14.32
2023-03-04T14:40:58.679Z,17.52
2023-03-04T14:43:25.244Z,13.05
2023-03-04T14:45:53.827Z,11.05
2023-03-04T14:48:28.737Z,10.57
2023-03-04T14:50:56.398Z,10.02
2023-03-04T14:53:31.432Z,15.45
2023-03-04T14:56:08.064Z,11.30
2023-03-04T14:58:39.191Z,10.25
2023-03-04T15:01:17.644Z,11.40
2023-03-04T15:03:57.267Z,9.10
2023-03-04T15:06:29.186Z,18.92
2023-03-04T15:09:01.122Z,22.92
2023-03-04T15:11:31.328Z,14.77
2023-03-04T15:14:00.108Z,14.13
2023-03-04T15:16:29.988Z,16.52
2023-03-04T15:19:00.709Z,19.20
2023-03-04T15:21:40.186Z,17.20
2023-03-04T15:24:08.675Z,15.48
2023-03-04T15:26:39.059Z,17.85
2023-03-04T15:29:18.230Z,19.70
2023-03-04T15:31:48.240Z,20.23
2023-03-04T15:34:16.185Z,17.40
2023-03-04T15:36:49.201Z,21.15
2023-03-04T15:39:16.770Z,15.50
2023-03-04T15:41:43.270Z,12.63
2023-03-04T15:44:10.223Z,13.27
2023-03-04T15:46:37.541Z,12.30
2023-03-04T15:49:04.476Z,9.75
2023-03-04T15:51:30.881Z,15.07
2023-03-04T15:53:58.712Z,13.32
2023-03-04T15:56:33.264Z,13.80
2023-03-04T15:59:04.000Z,19.55
2023-03-04T16:01:30.510Z,23.38
2023-03-04T16:03:56.936Z,22.50
2023-03-04T16:06:25.811Z,27.05
2023-03-04T16:08:52.365Z,13.45
2023-03-04T16:11:24.286Z,28.27
2023-03-04T16:13:51.115Z,25.15
2023-03-04T16:16:18.117Z,18.15
2023-03-04T16:18:45.138Z,13.50
2023-03-04T16:21:17.476Z,13.27
2023-03-04T16:23:45.967Z,16.08
2023-03-04T16:26:15.638Z,11.57
2023-03-04T16:28:42.570Z,12.57
2023-03-04T16:31:11.252Z,16.67
2023-03-04T16:33:37.725Z,14.45
2023-03-04T16:36:08.992Z,17.25
2023-03-04T16:38:35.433Z,14.27
2023-03-04T16:41:04.775Z,15.45
2023-03-04T16:43:31.240Z,14.55
2023-03-04T16:45:57.656Z,12.10
2023-03-04T16:48:24.070Z,12.23
2023-03-04T16:50:50.649Z,12.50
2023-03-04T16:53:25.617Z,15.07
2023-03-04T16:55:52.090Z,16.55
2023-03-04T16:58:18.445Z,10.57
2023-03-04T17:00:44.923Z,12.68
2023-03-04T17:03:11.643Z,10.30
2023-03-04T17:05:38.105Z,12.13
2023-03-04T17:08:04.613Z,12.68
2023-03-04T17:10:31.024Z,11.02
2023-03-04T17:12:57.454Z,17.00
2023-03-04T17:15:23.929Z,18.50
2023-03-04T17:17:52.185Z,16.67
2023-03-04T17:20:19.653Z,17.25
2023-03-04T17:22:46.245Z,15.23
2023-03-04T17:25:13.151Z,11.90
2023-03-04T17:27:39.878Z,18.77
2023-03-04T17:30:08.586Z,20.95
2023-03-04T17:32:36.301Z,14.48
2023-03-04T17:35:03.295Z,22.40
2023-03-04T17:37:29.861Z,15.98
2023-03-04T17:39:56.272Z,16.00
2023-03-04T17:42:22.984Z,14.63
2023-03-04T17:44:49.396Z,14.60
2023-03-04T17:47:16.085Z,17.42
2023-03-04T17:49:42.613Z,17.33
2023-03-04T17:52:09.044Z,15.73
2023-03-04T17:54:36.670Z,16.33
2023-03-04T17:57:03.680Z,13.57
2023-03-04T17:59:39.284Z,15.45
2023-03-04T18:02:05.988Z,13.43
2023-03-04T18:04:32.681Z,16.25
2023-03-04T18:06:59.081Z,16.38
2023-03-04T18:09:25.450Z,17.08
2023-03-04T18:11:51.913Z,15.27
2023-03-04T18:14:18.384Z,14.93
2023-03-04T18:16:44.896Z,20.10
2023-03-04T18:19:11.312Z,11.80
2023-03-04T18:21:37.860Z,13.27
2023-03-04T18:24:04.735Z,15.18
2023-03-04T18:26:31.148Z,14.68
2023-03-04T18:28:57.717Z,18.27
2023-03-04T18:31:28.349Z,13.90
2023-03-04T18:36:24.010Z,17.98
2023-03-04T18:38:50.408Z,18.27
2023-03-04T18:41:16.776Z,13.20
2023-03-04T18:43:43.651Z,16.58
2023-03-04T18:46:30.692Z,19.60
2023-03-04T18:49:01.641Z,13.57
2023-03-04T18:51:28.142Z,14.40
2023-03-04T18:53:54.546Z,12.38
2023-03-04T18:56:37.599Z,15.77
2023-03-04T18:59:25.980Z,15.95
2023-03-04T19:01:53.252Z,18.42
2023-03-04T19:04:20.615Z,21.98
2023-03-04T19:06:47.004Z,18.30
2023-03-04T19:09:13.596Z,18.20
2023-03-04T19:11:39.991Z,12.85
2023-03-04T19:14:06.354Z,13.68
2023-03-04T19:16:32.975Z,17.70
2023-03-04T19:18:59.504Z,15.98
2023-03-04T19:21:26.043Z,17.98
2023-03-04T19:23:52.832Z,14.15
2023-03-04T19:26:19.239Z,15.65
2023-03-04T19:28:45.685Z,9.65
2023-03-04T19:31:12.464Z,16.70
2023-03-04T19:33:39.962Z,11.25
2023-03-04T19:36:07.876Z,16.50
2023-03-04T19:38:35.318Z,14.85
2023-03-04T19:41:13.026Z,16.42
2023-03-04T19:43:39.730Z,16.25
2023-03-04T19:46:07.616Z,17.88
2023-03-04T19:48:34.818Z,16.63
2023-03-04T19:51:01.253Z,11.27
2023-03-04T19:53:27.668Z,9.18
2023-03-04T19:55:54.046Z,13.93
2023-03-04T19:58:20.784Z,7.15
2023-03-04T20:00:47.437Z,12.02
2023-03-04T20:03:13.950Z,12.52
2023-03-04T20:05:40.353Z,12.13
2023-03-04T20:08:06.864Z,12.48
2023-03-04T20:10:36.654Z,8.25
2023-03-04T20:13:04.103Z,13.98
2023-03-04T20:15:30.726Z,15.48
2023-03-04T20:17:57.265Z,12.73
2023-03-04T20:20:28.473Z,13.90
2023-03-04T20:22:55.817Z,9.57
2023-03-04T20:25:22.794Z,9.20
2023-03-04T20:27:49.245Z,8.45
2023-03-04T20:30:15.975Z,12.45
2023-03-04T20:32:42.502Z,14.63
2023-03-04T20:35:13.933Z,18.40
2023-03-04T20:37:41.409Z,15.63
2023-03-04T20:40:12.632Z,11.73
2023-03-04T20:42:39.033Z,17.92
2023-03-04T20:45:06.158Z,14.75
2023-03-04T20:47:32.652Z,12.65
2023-03-04T20:49:59.094Z,14.50
2023-03-04T20:52:25.588Z,15.35
2023-03-04T20:54:52.048Z,13.20
2023-03-04T20:57:18.453Z,17.15
2023-03-04T20:59:44.826Z,14.88
2023-03-04T21:02:14.776Z,14.05
2023-03-04T21:04:41.255Z,12.18
2023-03-04T21:07:07.705Z,13.10
2023-03-04T21:09:34.158Z,13.18
2023-03-04T21:12:01.078Z,14.75
2023-03-04T21:14:30.126Z,15.10
2023-03-04T21:16:58.647Z,16.95
2023-03-04T21:19:30.938Z,18.55
2023-03-04T21:21:58.142Z,18.10
2023-03-04T21:24:27.173Z,11.20
2023-03-04T21:26:53.553Z,16.40
2023-03-04T21:29:22.474Z,14.88
2023-03-04T21:31:51.271Z,16.70
2023-03-04T21:34:20.658Z,15.98
2023-03-04T21:36:47.598Z,14.13
2023-03-04T21:39:16.336Z,15.68
2023-03-04T21:41:42.754Z,14.57
2023-03-04T21:44:17.945Z,14.23
2023-03-04T21:46:58.527Z,12.65
2023-03-04T21:49:25.436Z,14.30
2023-03-04T21:51:52.097Z,16.45
2023-03-04T21:54:18.481Z,15.23
2023-03-04T21:56:44.949Z,11.82
2023-03-04T21:59:13.078Z,16.52
2023-03-04T22:01:40.176Z,12.85
2023-03-04T22:04:06.865Z,16.48
2023-03-04T22:06:34.368Z,17.90
2023-03-04T22:09:02.188Z,17.05
2023-03-04T22:11:29.894Z,13.32
2023-03-04T22:13:58.670Z,16.15
2023-03-04T22:16:25.350Z,15.18
2023-03-04T22:18:52.123Z,13.63
2023-03-04T22:21:20.111Z,16.00
2023-03-04T22:23:46.828Z,11.90
2023-03-04T22:26:21.640Z,13.02
2023-03-04T22:28:48.141Z,12.43
2023-03-04T22:31:15.605Z,15.75
2023-03-04T22:33:42.231Z,15.15
2023-03-04T22:36:08.684Z,19.88
2023-03-04T22:38:35.142Z,16.90
2023-03-04T22:41:01.672Z,12.50
2023-03-04T22:43:28.084Z,15.52
2023-03-04T22:45:54.533Z,17.00
2023-03-04T22:48:20.982Z,12.07
2023-03-04T22:50:47.333Z,14.27
2023-03-04T22:53:13.774Z,10.95
2023-03-04T22:55:40.184Z,13.05
2023-03-04T22:58:06.595Z,16.02
2023-03-04T23:00:33.007Z,14.35
2023-03-04T23:02:59.526Z,15.10
2023-03-04T23:05:26.081Z,14.30
2023-03-04T23:07:52.456Z,18.52
2023-03-04T23:10:23.852Z,10.45
2023-03-04T23:12:50.583Z,14.27
2023-03-04T23:15:18.336Z,15.95
2023-03-04T23:17:45.010Z,16.15
2023-03-04T23:20:13.494Z,12.45
2023-03-04T23:22:40.002Z,13.63
2023-03-04T23:25:06.880Z,11.82
2023-03-04T23:27:33.361Z,15.43
2023-03-04T23:30:00.062Z,15.35
2023-03-04T23:32:26.638Z,12.60
2023-03-04T23:34:55.316Z,14.77
2023-03-04T23:37:22.770Z,14.10
2023-03-04T23:39:49.781Z,21.52
2023-03-04T23:42:16.616Z,13.05
2023-03-04T23:44:43.126Z,22.08
2023-03-04T23:47:10.701Z,18.13
2023-03-04T23:49:37.249Z,17.08
2023-03-04T23:52:03.761Z,16.95
2023-03-04T23:54:31.077Z,18.52
2023-03-04T23:56:59.162Z,19.88
2023-03-04T23:59:25.612Z,18.17
